Time;durP1;ratioP1;P1;durP2;ratioP2;P2;SDS_P1;SDS_P2;PMS_P1;PMS_P2;Temp;Humidity;BMP_temperature;BMP_pressure;BME280_temperature;BME280_humidity;BME280_pressure;Samples;Min_cycle;Max_cycle;Signal;HPM_P1;HPM_P2
2021/07/29 00:04:21;;;;;;;9.05;8.35;;;;;;;19.96;73.58;99420.64;254134;1103;115707;-68
2021/07/29 00:09:25;;;;;;;9.50;8.00;;;;;;;19.93;73.74;99422.05;255156;1104;116904;-68
2021/07/29 00:14:29;;;;;;;12.60;8.77;;;;;;;19.91;73.25;99415.34;257148;1103;118024;-67
2021/07/29 00:19:32;;;;;;;9.13;8.23;;;;;;;19.83;73.34;99414.17;257142;1104;115681;-70
2021/07/29 00:24:35;;;;;;;13.90;7.40;;;;;;;19.81;73.67;99410.97;257137;1103;116966;-70
2021/07/29 00:29:38;;;;;;;7.87;7.17;;;;;;;19.74;73.38;99411.38;257228;1104;117344;-70
2021/07/29 00:34:41;;;;;;;11.13;8.05;;;;;;;19.65;73.69;99421.30;257278;1104;116245;-69
2021/07/29 00:39:44;;;;;;;9.23;8.33;;;;;;;19.57;73.96;99419.29;257389;1104;116727;-69
2021/07/29 00:44:47;;;;;;;7.47;6.87;;;;;;;19.54;73.23;99421.82;257307;1104;116262;-69
2021/07/29 00:49:51;;;;;;;9.10;8.20;;;;;;;19.50;72.54;99418.89;257139;1104;118173;-70
2021/07/29 00:54:55;;;;;;;8.20;7.50;;;;;;;19.40;73.27;99419.88;257111;1103;115719;-69
2021/07/29 00:59:59;;;;;;;8.83;7.60;;;;;;;19.31;73.05;99421.67;256029;1104;115864;-70
2021/07/29 01:05:06;;;;;;;10.35;7.28;;;;;;;19.22;73.42;99417.28;253723;1104;118955;-66
2021/07/29 01:10:09;;;;;;;9.33;7.90;;;;;;;19.10;73.09;99418.56;253930;1103;117125;-67
2021/07/29 01:15:13;;;;;;;6.98;6.30;;;;;;;18.97;73.46;99413.13;255588;1104;116269;-67
2021/07/29 01:20:21;;;;;;;11.43;7.23;;;;;;;18.91;73.12;99422.44;255321;1104;116292;-67
2021/07/29 01:25:25;;;;;;;8.00;7.30;;;;;;;18.78;73.26;99424.00;254606;1104;116414;-67
2021/07/29 01:30:29;;;;;;;9.53;6.75;;;;;;;18.64;73.41;99418.58;254998;1104;115903;-66
2021/07/29 01:35:34;;;;;;;;;;;;;;;18.50;73.10;99404.19;254517;1103;115677;-67
2021/07/29 01:40:39;;;;;;;7.17;6.50;;;;;;;18.22;73.05;99414.06;256569;1104;103678;-67
2021/07/29 01:45:45;;;;;;;6.75;6.15;;;;;;;18.12;73.02;99420.41;256417;1104;116468;-67
2021/07/29 01:50:48;;;;;;;6.73;6.08;;;;;;;18.01;73.18;99415.47;256117;1104;115705;-68
2021/07/29 01:55:52;;;;;;;7.48;5.88;;;;;;;17.98;73.87;99416.84;255138;1104;117104;-69
2021/07/29 02:00:55;;;;;;;5.90;5.40;;;;;;;17.88;73.83;99416.98;254166;1103;115841;-68
2021/07/29 02:06:02;;;;;;;10.30;6.53;;;;;;;17.82;73.72;99421.63;254675;1104;117710;-67
2021/07/29 02:11:06;;;;;;;6.23;5.63;;;;;;;17.75;73.25;99420.38;254979;1104;116106;-67
2021/07/29 02:16:13;;;;;;;6.20;5.60;;;;;;;17.65;73.52;99421.32;256054;1102;116293;-68
2021/07/29 02:21:17;;;;;;;7.03;5.38;;;;;;;17.62;73.66;99424.56;255792;1104;115530;-68
2021/07/29 02:26:20;;;;;;;7.15;5.20;;;;;;;17.54;73.74;99427.88;254225;1103;115479;-68
2021/07/29 02:31:24;;;;;;;5.78;5.30;;;;;;;17.42;73.73;99430.20;256033;1103;114267;-67
2021/07/29 02:36:28;;;;;;;7.28;6.60;;;;;;;17.39;74.11;99422.69;256233;1103;114207;-68
2021/07/29 02:41:33;;;;;;;8.10;6.73;;;;;;;17.33;73.72;99440.00;256848;1104;115019;-68
2021/07/29 02:46:37;;;;;;;6.23;5.48;;;;;;;17.30;73.96;99429.78;257125;1104;114570;-67
2021/07/29 02:51:40;;;;;;;6.60;6.00;;;;;;;17.28;73.83;99434.66;257067;1103;114885;-68
2021/07/29 02:56:43;;;;;;;13.15;6.23;;;;;;;17.23;74.09;99438.20;257201;1103;114768;-69
2021/07/29 03:01:47;;;;;;;9.30;6.20;;;;;;;17.24;74.14;99434.42;256320;1103;115255;-68
2021/07/29 03:06:52;;;;;;;7.07;6.37;;;;;;;17.26;74.48;99436.83;257337;1103;117037;-68
2021/07/29 03:11:55;;;;;;;6.53;5.68;;;;;;;17.20;73.97;99427.19;257451;1102;115321;-68
2021/07/29 03:16:58;;;;;;;14.10;5.93;;;;;;;17.21;74.20;99418.02;256416;1103;115577;-68
2021/07/29 03:22:01;;;;;;;7.30;6.60;;;;;;;17.24;74.46;99433.62;253871;1096;115818;-67
2021/07/29 03:27:05;;;;;;;14.95;7.15;;;;;;;17.24;74.35;99429.03;255372;1104;115509;-67
2021/07/29 03:32:08;;;;;;;10.57;7.47;;;;;;;17.18;74.24;99433.66;256621;1103;114874;-67
2021/07/29 03:37:12;;;;;;;8.93;8.03;;;;;;;17.22;74.61;99427.71;256504;1104;137524;-68
2021/07/29 03:42:15;;;;;;;8.80;7.90;;;;;;;17.26;74.50;99431.44;256549;1102;115147;-68
2021/07/29 03:47:19;;;;;;;11.53;7.00;;;;;;;17.30;74.58;99433.28;255696;1104;116890;-67
2021/07/29 03:52:22;;;;;;;8.45;7.58;;;;;;;17.35;74.57;99440.52;254135;1096;116951;-67
2021/07/29 03:57:32;;;;;;;9.80;8.80;;;;;;;17.65;74.19;99432.11;255298;1103;115990;-67
2021/07/29 04:02:37;;;;;;;10.08;7.58;;;;;;;17.64;74.51;99435.05;254630;1104;116622;-67
2021/07/29 04:07:40;;;;;;;19.55;9.30;;;;;;;17.67;74.32;99442.59;254549;1102;116194;-67
2021/07/29 04:12:43;;;;;;;10.78;9.20;;;;;;;17.74;74.52;99448.42;256151;1103;116630;-67
2021/07/29 04:17:47;;;;;;;10.73;9.70;;;;;;;18.02;74.01;99455.63;254179;1104;116043;-67
2021/07/29 04:22:53;;;;;;;9.30;8.33;;;;;;;18.06;74.17;99459.33;254122;1104;116157;-67
2021/07/29 04:27:56;;;;;;;;;;;;;;;18.28;74.40;99455.27;255892;1104;114920;-67
2021/07/29 04:32:59;;;;;;;9.97;8.97;;;;;;;18.44;74.53;99453.94;257615;1102;105019;-67
2021/07/29 04:38:03;;;;;;;18.50;9.30;;;;;;;18.67;73.92;99444.95;255204;1103;116532;-66
2021/07/29 04:43:07;;;;;;;10.45;9.43;;;;;;;18.67;73.90;99454.95;256139;1097;116248;-67
2021/07/29 04:48:10;;;;;;;9.57;8.57;;;;;;;18.97;73.37;99467.95;257232;1103;116320;-67
2021/07/29 04:53:13;;;;;;;11.33;10.13;;;;;;;19.37;73.08;99469.13;254511;1104;137662;-67
2021/07/29 04:58:19;;;;;;;10.53;9.18;;;;;;;19.47;72.96;99470.84;256363;1104;115319;-67
2021/07/29 05:03:25;;;;;;;8.77;6.63;;;;;;;20.00;72.06;99475.75;257316;1104;114563;-67
2021/07/29 05:08:36;;;;;;;9.93;8.93;;;;;;;19.83;72.58;99476.39;257200;1103;116774;-67
2021/07/29 05:13:39;;;;;;;13.25;9.70;;;;;;;19.82;72.25;99469.38;257054;1103;115450;-68
2021/07/29 05:18:42;;;;;;;13.80;10.33;;;;;;;21.23;70.51;99469.09;256549;1104;115217;-67
2021/07/29 05:23:45;;;;;;;9.27;8.43;;;;;;;25.11;66.17;99459.91;257041;1104;115417;-67
2021/07/29 05:28:48;;;;;;;8.35;7.65;;;;;;;28.77;61.25;99470.64;255027;1103;115007;-67
2021/07/29 05:33:50;;;;;;;9.80;7.80;;;;;;;31.51;57.77;99471.78;253903;1104;115234;-67
2021/07/29 05:38:53;;;;;;;8.03;5.93;;;;;;;33.82;53.57;99486.52;253553;1104;114916;-69
2021/07/29 05:43:56;;;;;;;10.15;5.80;;;;;;;35.50;50.10;99473.49;253648;1104;115108;-68
2021/07/29 05:49:00;;;;;;;7.63;5.03;;;;;;;36.71;46.12;99472.20;253741;1102;115028;-68
2021/07/29 05:54:03;;;;;;;4.58;4.10;;;;;;;37.04;44.15;99490.81;253890;1103;114426;-69
2021/07/29 05:59:07;;;;;;;5.30;4.35;;;;;;;37.99;42.47;99489.69;254629;1104;115442;-69
2021/07/29 06:04:11;;;;;;;3.83;3.47;;;;;;;38.40;40.26;99494.89;256168;1102;115828;-68
2021/07/29 06:09:15;;;;;;;3.53;3.23;;;;;;;37.71;40.58;99496.55;254965;1103;115060;-68
2021/07/29 06:14:19;;;;;;;4.88;4.38;;;;;;;36.12;40.16;99486.39;254987;1104;116268;-69
2021/07/29 06:19:29;;;;;;;5.60;3.70;;;;;;;35.91;40.56;99494.95;253749;1097;114782;-69
2021/07/29 06:24:33;;;;;;;4.40;3.40;;;;;;;35.85;40.54;99491.83;254360;1104;115609;-69
2021/07/29 06:29:37;;;;;;;4.10;3.80;;;;;;;34.49;40.48;99482.02;253963;1104;115043;-71
2021/07/29 06:34:41;;;;;;;5.88;3.90;;;;;;;32.70;41.00;99478.44;253708;1104;114521;-70
2021/07/29 06:39:44;;;;;;;3.98;3.60;;;;;;;31.23;42.76;99479.80;253592;1104;115538;-71
2021/07/29 06:44:46;;;;;;;11.73;4.60;;;;;;;30.25;44.52;99470.80;253768;1104;114992;-69
2021/07/29 06:49:49;;;;;;;4.48;4.08;;;;;;;29.40;45.39;99485.91;253748;1104;118133;-69
2021/07/29 06:54:53;;;;;;;3.40;3.10;;;;;;;28.74;46.53;99487.81;256515;1104;115612;-69
2021/07/29 06:59:56;;;;;;;6.85;4.13;;;;;;;28.13;47.46;99498.63;254191;1104;115544;-68
2021/07/29 07:04:59;;;;;;;6.35;5.85;;;;;;;27.91;48.62;99494.63;253789;1097;115314;-68
2021/07/29 07:10:02;;;;;;;8.00;5.93;;;;;;;28.19;48.99;99475.28;256805;1104;116751;-67
2021/07/29 07:15:05;;;;;;;9.00;4.98;;;;;;;29.06;48.38;99487.66;257062;1103;115192;-68
2021/07/29 07:20:08;;;;;;;7.95;5.88;;;;;;;29.81;48.66;99479.56;257080;1103;115123;-68
2021/07/29 07:25:13;;;;;;;7.83;5.20;;;;;;;30.66;48.24;99474.46;257055;1103;115737;-69
2021/07/29 07:30:16;;;;;;;5.90;4.70;;;;;;;31.16;46.66;99479.75;257165;1102;114908;-69
2021/07/29 07:35:20;;;;;;;;;;;;;;;31.14;46.40;99482.88;257275;1104;115134;-69
2021/07/29 07:40:23;;;;;;;8.67;5.30;;;;;;;31.19;46.66;99481.75;257961;1103;102684;-69
2021/07/29 07:45:26;;;;;;;5.63;5.00;;;;;;;31.19;45.85;99479.75;254783;1104;115258;-68
2021/07/29 07:50:29;;;;;;;6.13;5.53;;;;;;;31.05;46.57;99471.34;253610;1104;115227;-68
2021/07/29 07:55:35;;;;;;;9.93;4.60;;;;;;;30.87;45.89;99471.17;253705;1103;115244;-68
2021/07/29 08:00:38;;;;;;;4.53;4.13;;;;;;;30.56;46.39;99466.07;254394;1104;115354;-68
2021/07/29 08:05:42;;;;;;;4.68;4.28;;;;;;;30.41;46.36;99470.59;254124;1102;115022;-68
2021/07/29 08:10:50;;;;;;;8.75;5.88;;;;;;;29.92;45.83;99467.94;256998;1102;115989;-68
2021/07/29 08:15:54;;;;;;;6.30;5.37;;;;;;;29.61;47.51;99456.10;257044;1104;115853;-68
2021/07/29 08:20:59;;;;;;;5.53;4.67;;;;;;;29.60;47.88;99454.52;254780;1104;114969;-68
2021/07/29 08:26:03;;;;;;;5.73;5.23;;;;;;;29.60;47.44;99460.01;253669;1104;115006;-68
2021/07/29 08:31:15;;;;;;;6.00;4.55;;;;;;;29.64;47.94;99447.13;254067;1104;115169;-68
2021/07/29 08:36:20;;;;;;;4.93;4.43;;;;;;;29.70;48.13;99453.87;253731;1103;114832;-68
2021/07/29 08:41:23;;;;;;;5.63;5.18;;;;;;;30.04;48.22;99448.50;253599;1104;116619;-68
2021/07/29 08:46:25;;;;;;;5.78;5.28;;;;;;;29.55;46.89;99443.84;253747;1103;137394;-67
2021/07/29 08:51:29;;;;;;;11.83;5.50;;;;;;;29.48;47.25;99460.20;253668;1103;115953;-67
2021/07/29 08:56:32;;;;;;;5.50;5.00;;;;;;;29.18;47.07;99459.26;253754;1104;115251;-68
2021/07/29 09:01:48;;;;;;;4.70;4.10;;;;;;;29.04;47.27;99452.38;256417;1103;115630;-67
2021/07/29 09:07:00;;;;;;;5.73;5.23;;;;;;;29.18;47.93;99451.02;255242;1104;115588;-68
2021/07/29 09:12:21;;;;;;;4.33;3.78;;;;;;;29.04;47.14;99443.35;253810;1103;115399;-68
2021/07/29 09:17:24;;;;;;;5.20;4.58;;;;;;;29.20;47.86;99437.73;253715;1104;114074;-68
2021/07/29 09:22:30;;;;;;;3.95;3.65;;;;;;;29.26;47.25;99437.06;253639;1104;115663;-68
2021/07/29 09:27:40;;;;;;;4.38;4.08;;;;;;;29.18;47.04;99440.84;256432;1104;116481;-68
2021/07/29 09:32:55;;;;;;;3.57;3.33;;;;;;;29.34;47.50;99440.73;257219;1104;115181;-67
2021/07/29 09:38:04;;;;;;;3.40;3.10;;;;;;;29.58;47.38;99434.07;257294;1104;115950;-68
2021/07/29 09:43:12;;;;;;;4.25;3.95;;;;;;;29.66;46.35;99433.78;257074;1104;114891;-67
2021/07/29 09:48:17;;;;;;;6.87;3.27;;;;;;;29.80;46.32;99433.22;256322;1104;116309;-67
2021/07/29 09:53:21;;;;;;;3.93;3.63;;;;;;;29.26;46.59;99431.58;253803;1104;116297;-67
2021/07/29 09:58:24;;;;;;;4.13;3.73;;;;;;;28.81;46.60;99444.09;256948;1104;116471;-67
2021/07/29 10:03:30;;;;;;;3.17;2.57;;;;;;;29.02;46.76;99435.48;256761;1104;117532;-69
2021/07/29 10:08:51;;;;;;;4.33;3.93;;;;;;;29.12;46.66;99436.80;253888;1094;116213;-68
2021/07/29 10:13:56;;;;;;;4.30;3.90;;;;;;;28.71;46.16;99438.40;253592;1099;116348;-69
2021/07/29 10:18:59;;;;;;;4.83;3.73;;;;;;;28.47;46.41;99439.48;253740;1104;115395;-69
2021/07/29 10:24:03;;;;;;;4.25;3.30;;;;;;;28.38;46.63;99442.45;253981;1103;115925;-68
2021/07/29 10:29:19;;;;;;;3.43;3.10;;;;;;;28.10;46.41;99430.88;253911;1097;115910;-70
2021/07/29 10:34:31;;;;;;;3.55;3.25;;;;;;;28.39;46.90;99438.56;253670;1104;116201;-68
2021/07/29 10:40:16;;;;;;;4.43;3.10;;;;;;;28.82;47.07;99428.44;253841;1104;115629;-69
2021/07/29 10:45:51;;;;;;;3.40;3.10;;;;;;;29.16;46.47;99426.69;253658;1104;116748;-69
2021/07/29 10:51:16;;;;;;;4.00;3.50;;;;;;;29.45;46.36;99427.97;254278;1104;116184;-68
2021/07/29 10:56:22;;;;;;;3.33;3.13;;;;;;;29.43;45.71;99428.34;254094;1104;115218;-69
2021/07/29 11:01:49;;;;;;;3.23;2.93;;;;;;;29.69;45.50;99427.56;253616;1103;115181;-69
2021/07/29 11:07:00;;;;;;;6.40;3.70;;;;;;;29.82;45.31;99430.89;257014;1103;115066;-69
2021/07/29 11:12:04;;;;;;;3.87;3.57;;;;;;;29.25;44.63;99429.98;255368;1104;115775;-70
2021/07/29 11:17:08;;;;;;;3.23;2.98;;;;;;;28.69;44.76;99427.80;255673;1104;115609;-67
2021/07/29 11:22:10;;;;;;;5.33;3.43;;;;;;;28.91;45.21;99430.95;253756;1103;115086;-67
2021/07/29 11:27:13;;;;;;;2.90;2.70;;;;;;;29.24;45.78;99416.63;253626;1103;115233;-67
2021/07/29 11:32:18;;;;;;;3.23;2.93;;;;;;;29.37;44.70;99427.03;253745;1104;115879;-69
2021/07/29 11:37:23;;;;;;;3.60;3.30;;;;;;;29.33;44.36;99411.69;257058;1104;116123;-67
2021/07/29 11:42:39;;;;;;;2.90;2.70;;;;;;;29.42;43.99;99412.23;257300;1103;115386;-69
2021/07/29 11:47:43;;;;;;;3.37;3.03;;;;;;;29.29;44.05;99413.58;257057;1103;115915;-69
2021/07/29 11:52:51;;;;;;;2.30;2.20;;;;;;;29.39;43.95;99412.94;257055;1104;115236;-70
2021/07/29 11:57:55;;;;;;;5.95;3.38;;;;;;;28.85;43.78;99418.69;257106;1103;115450;-69
2021/07/29 12:03:00;;;;;;;6.50;2.80;;;;;;;28.63;44.13;99403.76;257211;1102;115491;-69
2021/07/29 12:08:05;;;;;;;3.70;3.23;;;;;;;28.87;44.11;99410.88;257134;1103;115767;-69
2021/07/29 12:13:11;;;;;;;2.68;2.58;;;;;;;29.08;43.98;99397.53;257132;1104;115655;-69
2021/07/29 12:18:19;;;;;;;4.90;3.28;;;;;;;29.26;43.91;99392.34;257210;1104;115436;-68
2021/07/29 12:23:24;;;;;;;2.60;2.47;;;;;;;28.68;43.49;99397.98;255835;1104;114639;-68
2021/07/29 12:28:43;;;;;;;2.56;2.00;;;;;;;28.79;44.30;99387.98;255631;1104;115293;-67
2021/07/29 12:33:49;;;;;;;3.03;2.70;;;;;;;28.67;43.32;99385.42;255446;1103;136749;-68
2021/07/29 12:39:01;;;;;;;3.45;2.53;;;;;;;28.56;43.39;99379.73;253749;1096;114847;-68
2021/07/29 12:44:16;;;;;;;4.40;2.90;;;;;;;28.54;42.93;99386.73;255235;1104;114653;-68
2021/07/29 12:49:20;;;;;;;;;;;;;;;28.36;42.55;99378.18;253701;1104;114895;-68
2021/07/29 12:54:23;;;;;;;3.50;3.25;;;;;;;28.54;42.82;99373.81;256582;1096;103096;-69
2021/07/29 12:59:26;;;;;;;2.67;2.47;;;;;;;28.76;42.78;99361.27;253641;1100;114295;-68
2021/07/29 13:04:28;;;;;;;3.25;2.95;;;;;;;28.86;41.98;99352.48;253569;1104;114722;-67
2021/07/29 13:09:31;;;;;;;3.70;3.30;;;;;;;28.90;41.94;99347.05;253633;1104;115387;-67
2021/07/29 13:14:34;;;;;;;2.48;2.38;;;;;;;28.74;41.63;99358.13;253585;1104;115454;-68
2021/07/29 13:19:38;;;;;;;4.18;2.83;;;;;;;28.54;42.07;99353.83;253664;1104;114620;-67
2021/07/29 13:24:41;;;;;;;2.23;2.13;;;;;;;28.24;42.48;99351.70;253650;1104;114772;-67
2021/07/29 13:29:44;;;;;;;3.63;3.33;;;;;;;28.05;42.45;99343.47;253529;1104;114617;-68
2021/07/29 13:34:49;;;;;;;2.85;2.65;;;;;;;28.20;42.74;99347.27;253578;1096;115723;-69
2021/07/29 13:39:53;;;;;;;4.68;3.25;;;;;;;27.84;42.11;99344.59;253626;1104;115169;-68
2021/07/29 13:45:43;;;;;;;3.43;3.20;;;;;;;27.67;42.03;99339.55;253519;1104;115233;-68
2021/07/29 13:50:23;;;;;;;3.65;3.35;;;;;;;27.69;42.80;99326.29;257072;1103;115009;-67
2021/07/29 13:55:27;;;;;;;4.57;3.57;;;;;;;28.04;42.50;99339.14;257111;1102;115953;-66
2021/07/29 14:00:32;;;;;;;4.33;3.37;;;;;;;28.09;42.54;99330.64;255912;1104;116327;-67
2021/07/29 14:05:41;;;;;;;3.68;3.10;;;;;;;28.20;42.37;99328.09;253482;1103;115836;-68
2021/07/29 14:10:45;;;;;;;6.67;3.50;;;;;;;27.89;42.27;99323.55;253669;1102;115824;-67
2021/07/29 14:15:48;;;;;;;3.47;3.17;;;;;;;27.67;42.37;99325.06;257221;1104;116647;-67
2021/07/29 14:21:08;;;;;;;8.47;3.40;;;;;;;27.68;42.96;99321.17;257133;1103;116047;-67
2021/07/29 14:26:14;;;;;;;4.03;3.68;;;;;;;27.75;42.89;99327.59;257377;1104;116640;-68
2021/07/29 14:31:17;;;;;;;3.65;3.35;;;;;;;27.61;42.61;99335.49;257083;1104;116036;-67
2021/07/29 14:36:20;;;;;;;5.10;4.55;;;;;;;27.37;43.32;99333.76;257485;1104;115946;-67
2021/07/29 14:41:23;;;;;;;4.25;3.85;;;;;;;27.13;43.60;99339.45;257278;1104;117536;-67
2021/07/29 14:51:55;;;;;;;4.28;3.88;;;;;;;26.81;43.69;99325.75;254214;1104;115763;-66
2021/07/29 14:57:01;;;;;;;4.83;4.30;;;;;;;26.80;44.74;99324.16;254178;1103;116351;-69
2021/07/29 16:11:59;;;;;;;4.65;4.25;;;;;;;25.99;45.91;99289.19;257151;1104;119319;-68
2021/07/29 16:17:09;;;;;;;10.87;6.87;;;;;;;26.04;44.91;99288.91;257129;1103;116121;-67
2021/07/29 16:22:12;;;;;;;5.53;4.90;;;;;;;26.00;44.21;99288.02;257215;1104;116243;-68
2021/07/29 16:27:15;;;;;;;9.40;6.73;;;;;;;25.91;43.81;99284.66;257243;1104;115177;-67
2021/07/29 16:32:18;;;;;;;7.78;7.05;;;;;;;25.78;43.19;99281.97;257278;1104;114646;-67
2021/07/29 16:37:21;;;;;;;10.57;6.50;;;;;;;25.72;43.72;99286.08;257176;1103;116695;-68
2021/07/29 16:42:24;;;;;;;7.28;6.68;;;;;;;25.65;43.30;99277.70;257073;1103;116779;-67
2021/07/29 16:47:28;;;;;;;7.53;6.55;;;;;;;25.61;44.19;99276.77;257120;1104;115718;-68
2021/07/29 16:52:32;;;;;;;6.25;5.43;;;;;;;25.52;43.98;99281.56;254244;1104;115453;-67
2021/07/29 16:57:37;;;;;;;7.85;5.45;;;;;;;25.41;43.81;99278.50;255844;1096;114795;-68
2021/07/29 17:02:40;;;;;;;4.40;2.87;;;;;;;25.28;43.28;99285.14;253677;1098;115188;-68
2021/07/29 17:07:43;;;;;;;3.83;3.53;;;;;;;25.17;43.27;99284.00;253721;1104;115131;-66
2021/07/29 17:12:46;;;;;;;4.65;4.28;;;;;;;25.04;42.82;99274.26;253845;1096;115937;-68
2021/07/29 17:17:49;;;;;;;4.28;3.88;;;;;;;24.95;43.50;99285.27;253500;1104;115171;-68
2021/07/29 17:22:52;;;;;;;5.45;4.95;;;;;;;24.84;43.87;99282.16;254146;1104;116718;-68
2021/07/29 17:27:56;;;;;;;7.13;4.68;;;;;;;24.70;44.88;99280.92;253536;1104;115383;-68
2021/07/29 17:32:59;;;;;;;5.57;4.13;;;;;;;24.51;44.76;99289.61;253805;1102;136887;-69
2021/07/29 17:38:02;;;;;;;4.20;3.80;;;;;;;24.36;44.71;99288.35;253777;1099;115346;-67
2021/07/29 17:43:06;;;;;;;4.50;4.10;;;;;;;24.18;45.11;99295.06;253777;1103;115471;-66
2021/07/29 17:48:09;;;;;;;3.83;3.53;;;;;;;24.03;45.65;99284.81;253802;1104;115002;-67
2021/07/29 17:53:12;;;;;;;3.83;3.48;;;;;;;23.88;45.66;99293.58;253514;1104;115393;-68
2021/07/29 17:58:14;;;;;;;3.88;3.55;;;;;;;23.66;46.05;99303.69;253746;1104;114530;-69
2021/07/29 18:03:17;;;;;;;3.28;2.83;;;;;;;23.41;46.62;99297.27;253875;1104;115271;-70
2021/07/29 18:08:21;;;;;;;3.55;3.25;;;;;;;23.17;46.75;99303.34;256544;1104;115489;-69
2021/07/29 18:13:25;;;;;;;3.45;3.18;;;;;;;23.01;47.50;99305.02;257133;1104;115169;-69
2021/07/29 18:18:29;;;;;;;4.58;2.80;;;;;;;22.80;48.19;99299.52;254795;1104;115072;-68
2021/07/29 18:23:32;;;;;;;3.97;3.67;;;;;;;22.53;48.65;99307.27;253879;1102;114982;-67
2021/07/29 18:28:35;;;;;;;4.05;3.65;;;;;;;22.26;49.53;99297.59;253721;1104;115467;-68
2021/07/29 18:33:39;;;;;;;6.50;3.45;;;;;;;21.95;50.50;99303.19;255845;1104;114944;-68
2021/07/29 18:38:42;;;;;;;2.90;2.70;;;;;;;21.62;50.95;99306.37;257182;1104;114500;-67
2021/07/29 18:43:46;;;;;;;3.70;3.43;;;;;;;21.28;51.98;99309.82;257162;1103;114591;-67
2021/07/29 18:48:49;;;;;;;4.05;3.08;;;;;;;21.06;52.74;99313.41;256322;1104;114778;-67
2021/07/29 18:53:52;;;;;;;4.25;3.45;;;;;;;20.79;53.87;99317.10;257154;1103;115118;-67
2021/07/29 18:58:58;;;;;;;3.83;3.53;;;;;;;20.57;54.43;99327.20;257181;1104;115138;-66
2021/07/29 19:04:01;;;;;;;3.95;3.58;;;;;;;20.41;54.68;99330.30;257114;1104;116005;-67
2021/07/29 19:09:04;;;;;;;6.33;3.30;;;;;;;20.09;55.41;99325.13;255385;1103;117057;-70
2021/07/29 19:14:07;;;;;;;3.00;2.80;;;;;;;19.79;55.91;99321.22;253698;1102;114715;-67
2021/07/29 19:19:11;;;;;;;3.75;3.45;;;;;;;19.68;56.73;99325.25;255813;1104;115615;-67
2021/07/29 19:24:14;;;;;;;3.60;3.30;;;;;;;19.53;57.38;99336.41;257347;1104;116561;-70
2021/07/29 19:29:17;;;;;;;3.75;3.23;;;;;;;19.41;57.36;99334.19;254212;1103;116652;-66
2021/07/29 19:34:23;;;;;;;3.78;3.48;;;;;;;19.26;57.93;99337.98;253807;1104;116575;-66
2021/07/29 19:39:27;;;;;;;6.65;4.33;;;;;;;19.09;58.29;99335.91;255378;1103;116322;-68
2021/07/29 19:44:31;;;;;;;7.20;3.65;;;;;;;18.86;58.50;99336.91;255455;1096;115678;-68
2021/07/29 19:49:36;;;;;;;11.25;3.90;;;;;;;18.74;59.22;99337.38;255147;1104;116147;-65
2021/07/29 19:54:40;;;;;;;5.08;3.58;;;;;;;18.65;59.11;99338.38;254396;1104;117104;-67
2021/07/29 19:59:43;;;;;;;4.40;3.93;;;;;;;18.56;59.84;99340.92;253976;1104;116009;-66
2021/07/29 20:04:46;;;;;;;4.13;3.73;;;;;;;18.34;60.13;99338.88;254969;1104;116623;-65
2021/07/29 20:09:53;;;;;;;6.40;4.10;;;;;;;18.16;60.36;99342.39;257390;1103;116973;-66
2021/07/29 20:14:56;;;;;;;4.55;4.15;;;;;;;18.01;60.82;99348.84;254520;1102;115518;-66
2021/07/29 20:20:00;;;;;;;4.23;3.80;;;;;;;17.90;60.88;99341.19;257270;1103;116424;-66
2021/07/29 20:25:04;;;;;;;6.50;3.90;;;;;;;17.84;61.25;99335.86;257284;1104;116903;-66
2021/07/29 20:30:07;;;;;;;3.15;2.90;;;;;;;17.77;61.67;99340.81;257299;1104;117928;-66
2021/07/29 20:35:11;;;;;;;7.43;4.30;;;;;;;17.67;61.96;99343.67;257178;1103;115598;-66
2021/07/29 20:40:14;;;;;;;6.00;4.80;;;;;;;17.61;62.04;99343.99;257110;1104;117171;-66
2021/07/29 20:45:18;;;;;;;5.90;4.30;;;;;;;17.53;62.35;99345.43;257172;1103;117914;-67
2021/07/29 20:50:22;;;;;;;10.05;4.13;;;;;;;17.51;62.50;99347.61;257077;1103;116583;-67
2021/07/29 20:55:27;;;;;;;9.15;4.08;;;;;;;17.47;62.96;99349.28;257141;1104;115875;-66
2021/07/29 21:00:31;;;;;;;5.48;3.78;;;;;;;17.39;62.77;99352.64;257150;1104;115414;-66
2021/07/29 21:05:36;;;;;;;3.80;3.45;;;;;;;17.32;63.30;99344.90;255379;1096;114931;-65
2021/07/29 21:10:40;;;;;;;5.90;5.30;;;;;;;17.32;63.46;99341.41;257294;1104;115637;-66
2021/07/29 21:15:43;;;;;;;5.73;5.18;;;;;;;17.35;63.87;99343.52;257200;1103;116086;-66
2021/07/29 21:20:50;;;;;;;6.70;5.58;;;;;;;17.35;63.82;99348.91;255570;1104;116759;-66
2021/07/29 21:25:53;;;;;;;5.20;4.73;;;;;;;17.25;64.05;99343.64;255356;1104;116333;-65
2021/07/29 21:30:59;;;;;;;5.00;4.60;;;;;;;17.14;64.30;99342.95;254867;1104;116835;-66
2021/07/29 21:36:05;;;;;;;12.13;5.43;;;;;;;17.04;64.43;99348.47;254388;1102;117078;-66
2021/07/29 21:41:10;;;;;;;6.23;5.63;;;;;;;16.92;64.85;99348.85;255428;1104;116529;-66
2021/07/29 21:46:14;;;;;;;7.58;5.80;;;;;;;16.93;65.36;99341.58;253918;1104;119886;-66
2021/07/29 21:51:18;;;;;;;10.75;6.53;;;;;;;16.96;65.92;99347.20;254179;1096;117527;-66
2021/07/29 21:56:21;;;;;;;8.28;5.85;;;;;;;16.99;66.09;99352.02;255803;1104;116065;-65
2021/07/29 22:01:27;;;;;;;6.60;5.70;;;;;;;16.95;66.19;99358.25;254085;1104;116027;-66
2021/07/29 22:06:32;;;;;;;6.40;5.80;;;;;;;16.97;66.47;99362.27;257100;1104;114561;-66
2021/07/29 22:11:35;;;;;;;7.20;5.78;;;;;;;17.05;67.02;99361.64;254839;1103;116743;-67
2021/07/29 22:16:57;;;;;;;7.60;6.80;;;;;;;17.13;66.93;99362.88;254576;1104;115635;-66
2021/07/29 22:22:02;;;;;;;8.53;7.15;;;;;;;17.22;67.36;99355.79;255261;1102;116156;-66
2021/07/29 22:27:09;;;;;;;10.13;6.30;;;;;;;17.30;67.64;99357.85;254247;1096;115967;-67
2021/07/29 22:32:12;;;;;;;8.78;6.85;;;;;;;17.38;67.81;99359.11;256017;1103;115191;-66
2021/07/29 22:37:15;;;;;;;8.40;6.20;;;;;;;17.48;68.10;99358.97;257282;1104;116184;-65
2021/07/29 22:42:17;;;;;;;6.43;5.90;;;;;;;17.61;68.10;99368.25;254678;1104;116008;-65
2021/07/29 22:47:21;;;;;;;9.38;6.45;;;;;;;17.71;68.46;99373.55;256914;1104;116616;-66
2021/07/29 22:52:24;;;;;;;10.10;7.78;;;;;;;17.80;67.86;99366.39;257322;1104;115596;-66
2021/07/29 22:57:28;;;;;;;12.60;6.85;;;;;;;17.90;68.25;99357.36;257318;1104;116416;-65
2021/07/29 23:02:31;;;;;;;10.97;7.30;;;;;;;17.94;68.18;99369.17;257269;1104;116818;-65
2021/07/29 23:07:35;;;;;;;7.25;5.55;;;;;;;18.01;67.97;99375.02;257201;1104;115152;-66
2021/07/29 23:12:38;;;;;;;6.43;5.83;;;;;;;17.98;68.61;99367.50;257322;1103;116216;-67
2021/07/29 23:17:41;;;;;;;8.90;6.90;;;;;;;17.95;68.38;99362.69;257043;1103;116497;-66
2021/07/29 23:22:45;;;;;;;12.90;6.80;;;;;;;17.98;68.38;99362.11;257048;1104;116684;-67
2021/07/29 23:33:12;;;;;;;6.73;5.80;;;;;;;17.89;68.17;99355.76;256458;1104;114778;-67
2021/07/29 23:38:17;;;;;;;8.73;5.90;;;;;;;17.74;67.86;99348.67;256505;1104;114890;-67
2021/07/29 23:43:21;;;;;;;10.90;6.53;;;;;;;17.63;68.01;99352.59;256654;1104;115445;-66
2021/07/29 23:48:24;;;;;;;7.50;6.40;;;;;;;17.60;68.17;99353.17;255483;1104;115638;-66
2021/07/29 23:53:27;;;;;;;7.58;6.38;;;;;;;17.46;67.97;99358.45;255185;1103;115383;-66
2021/07/29 23:58:32;;;;;;;8.68;6.28;;;;;;;17.28;68.10;99356.53;254153;1104;115827;-66
